Time;durP1;ratioP1;P1;durP2;ratioP2;P2;SDS_P1;SDS_P2;PMS_P1;PMS_P2;Temp;Humidity;BMP_temperature;BMP_pressure;BME280_temperature;BME280_humidity;BME280_pressure;Samples;Min_cycle;Max_cycle;Signal;HPM_P1;HPM_P2
2022/01/07 00:02:14;;;;;;;6.45;3.00;;;;;;;;;;5044803;28;20175;-67
2022/01/07 00:04:43;;;;;;;7.43;3.20;;;;;;;;;;5033803;28;20049;-67
2022/01/07 00:07:13;;;;;;;13.02;3.15;;;;;;;;;;5043115;28;20048;-67
2022/01/07 00:09:41;;;;;;;8.98;3.33;;;;;;;;;;5014249;28;20136;-68
2022/01/07 00:12:10;;;;;;;12.50;3.50;;;;;;;;;;5033022;28;20057;-68
2022/01/07 00:14:38;;;;;;;6.75;3.05;;;;;;;;;;5031735;28;20085;-68
2022/01/07 00:17:07;;;;;;;6.75;3.20;;;;;;;;;;5034779;28;20041;-67
2022/01/07 00:19:35;;;;;;;8.43;3.78;;;;;;;;;;5037744;28;20493;-67
2022/01/07 00:22:04;;;;;;;6.65;2.80;;;;;;;;;;5038008;28;20382;-67
2022/01/07 00:24:34;;;;;;;5.03;2.80;;;;;;;;;;5035485;28;20073;-67
2022/01/07 00:27:02;;;;;;;8.25;3.55;;;;;;;;;;5031515;28;20045;-67
2022/01/07 00:29:50;;;;;;;9.73;3.55;;;;;;;;;;5033255;28;20081;-67
2022/01/07 00:32:19;;;;;;;6.30;3.35;;;;;;;;;;5041704;28;20468;-68
2022/01/07 00:34:47;;;;;;;8.85;3.03;;;;;;;;;;5047016;28;20487;-67
2022/01/07 00:37:15;;;;;;;8.02;3.60;;;;;;;;;;5038509;28;20139;-68
2022/01/07 00:39:45;;;;;;;8.10;3.88;;;;;;;;;;5037654;28;20092;-68
2022/01/07 00:42:14;;;;;;;6.47;3.55;;;;;;;;;;5036360;28;20059;-68
2022/01/07 00:44:42;;;;;;;6.20;3.47;;;;;;;;;;5038116;28;20080;-67
2022/01/07 00:47:10;;;;;;;6.38;3.60;;;;;;;;;;5031787;28;20558;-67
2022/01/07 00:49:49;;;;;;;3.27;2.45;;;;;;;;;;3418285;28;10021425;-68
2022/01/07 00:52:17;;;;;;;5.88;2.92;;;;;;;;;;2919858;28;10001972;-67
2022/01/07 00:54:47;;;;;;;6.20;3.50;;;;;;;;;;5026175;28;20128;-67
2022/01/07 00:57:16;;;;;;;8.52;3.60;;;;;;;;;;5024706;28;20100;-67
2022/01/07 00:59:45;;;;;;;11.32;3.13;;;;;;;;;;5010619;28;20143;-67
2022/01/07 01:02:13;;;;;;;7.22;3.53;;;;;;;;;;5041708;28;20109;-67
2022/01/07 01:04:43;;;;;;;6.63;3.55;;;;;;;;;;5030700;28;20049;-67
2022/01/07 01:07:12;;;;;;;11.82;4.00;;;;;;;;;;5032216;28;20051;-67
2022/01/07 01:09:40;;;;;;;10.93;3.83;;;;;;;;;;5039788;28;20489;-67
2022/01/07 01:12:11;;;;;;;7.90;3.50;;;;;;;;;;5031716;28;20045;-67
2022/01/07 01:14:40;;;;;;;9.82;3.65;;;;;;;;;;5044975;28;20124;-67
2022/01/07 01:17:08;;;;;;;4.43;3.17;;;;;;;;;;5033295;28;20139;-67
2022/01/07 01:19:38;;;;;;;10.38;2.80;;;;;;;;;;5034916;28;20315;-67
2022/01/07 01:22:08;;;;;;;12.82;4.15;;;;;;;;;;5038722;28;20135;-68
2022/01/07 01:24:37;;;;;;;6.38;3.00;;;;;;;;;;5044122;28;20091;-67
2022/01/07 01:27:06;;;;;;;5.40;3.17;;;;;;;;;;5038096;28;20080;-67
2022/01/07 01:29:36;;;;;;;6.07;3.03;;;;;;;;;;5049287;28;20374;-67
2022/01/07 01:32:05;;;;;;;6.22;3.20;;;;;;;;;;5037083;28;20059;-67
2022/01/07 01:34:33;;;;;;;5.85;2.80;;;;;;;;;;5027714;28;20055;-67
2022/01/07 01:37:02;;;;;;;7.47;3.53;;;;;;;;;;5029379;28;20128;-67
2022/01/07 01:39:31;;;;;;;8.27;4.25;;;;;;;;;;5026287;28;20145;-67
2022/01/07 01:41:59;;;;;;;6.35;3.30;;;;;;;;;;5024428;28;20136;-67
2022/01/07 01:44:27;;;;;;;6.30;3.10;;;;;;;;;;5036995;28;20051;-67
2022/01/07 01:46:58;;;;;;;6.85;3.47;;;;;;;;;;5023441;28;20050;-67
2022/01/07 01:49:27;;;;;;;9.30;3.90;;;;;;;;;;5039429;28;20084;-67
2022/01/07 01:51:55;;;;;;;8.70;3.22;;;;;;;;;;5033998;28;20544;-67
2022/01/07 01:54:23;;;;;;;7.47;4.10;;;;;;;;;;5038564;28;20082;-67
2022/01/07 01:56:59;;;;;;;5.55;2.17;;;;;;;;;;1564593;28;10022880;-68
2022/01/07 01:59:28;;;;;;;9.80;3.33;;;;;;;;;;3972783;28;10001777;-68
2022/01/07 02:01:58;;;;;;;10.55;4.07;;;;;;;;;;5018036;28;20132;-68
2022/01/07 02:04:28;;;;;;;9.93;3.42;;;;;;;;;;5021194;28;20094;-67
2022/01/07 02:06:56;;;;;;;7.80;3.30;;;;;;;;;;5019617;28;20108;-67
2022/01/07 02:09:33;;;;;;;9.88;3.97;;;;;;;;;;5031402;28;20060;-68
2022/01/07 02:12:02;;;;;;;7.53;3.33;;;;;;;;;;5020754;28;20046;-67
2022/01/07 02:14:30;;;;;;;10.32;2.97;;;;;;;;;;5023454;28;20101;-68
2022/01/07 02:17:06;;;;;;;6.80;3.58;;;;;;;;;;5023347;28;20141;-67
2022/01/07 02:19:36;;;;;;;5.53;2.88;;;;;;;;;;5012386;28;20470;-67
2022/01/07 02:22:05;;;;;;;7.25;3.15;;;;;;;;;;5024536;28;20123;-67
2022/01/07 02:24:35;;;;;;;4.78;2.53;;;;;;;;;;5014008;28;20581;-67
2022/01/07 02:27:03;;;;;;;6.03;2.50;;;;;;;;;;5023364;28;20165;-67
2022/01/07 02:29:32;;;;;;;6.85;3.50;;;;;;;;;;5027684;28;20053;-67
2022/01/07 02:32:00;;;;;;;6.28;2.78;;;;;;;;;;5040154;28;20177;-67
2022/01/07 02:34:29;;;;;;;5.82;2.53;;;;;;;;;;5029995;28;20080;-67
2022/01/07 02:36:59;;;;;;;7.72;2.53;;;;;;;;;;5031407;28;20052;-67
2022/01/07 02:39:27;;;;;;;3.08;1.95;;;;;;;;;;5037280;28;20560;-67
2022/01/07 02:41:55;;;;;;;7.47;2.90;;;;;;;;;;5025491;28;20136;-67
2022/01/07 02:44:24;;;;;;;6.25;3.17;;;;;;;;;;5038963;28;20053;-67
2022/01/07 02:46:52;;;;;;;5.90;2.90;;;;;;;;;;5034510;28;20123;-67
2022/01/07 02:49:20;;;;;;;3.47;1.90;;;;;;;;;;5028026;28;20145;-67
2022/01/07 02:51:49;;;;;;;4.15;2.08;;;;;;;;;;5029828;28;20089;-67
2022/01/07 02:54:18;;;;;;;9.05;2.20;;;;;;;;;;5036788;28;20073;-67
2022/01/07 02:56:47;;;;;;;4.57;2.17;;;;;;;;;;5027574;28;20089;-67
2022/01/07 02:59:15;;;;;;;3.40;2.33;;;;;;;;;;5032465;28;20081;-67
2022/01/07 03:01:44;;;;;;;8.27;2.90;;;;;;;;;;5020517;28;20084;-67
2022/01/07 03:04:12;;;;;;;5.85;2.90;;;;;;;;;;5020949;28;20048;-67
2022/01/07 03:06:40;;;;;;;3.55;2.17;;;;;;;;;;5030570;28;20045;-67
2022/01/07 03:09:09;;;;;;;5.20;2.53;;;;;;;;;;5030756;28;20511;-67
2022/01/07 03:11:39;;;;;;;4.38;2.30;;;;;;;;;;5029885;28;20583;-67
2022/01/07 03:14:07;;;;;;;5.78;2.50;;;;;;;;;;4981004;28;20364;-68
2022/01/07 03:16:48;;;;;;;6.15;2.00;;;;;;;;;;730304;28;10003378;-67
2022/01/07 03:19:16;;;;;;;5.13;1.77;;;;;;;;;;5045504;28;20270;-67
2022/01/07 03:21:44;;;;;;;7.15;2.70;;;;;;;;;;5031334;28;20576;-67
2022/01/07 03:24:27;;;;;;;3.58;1.50;;;;;;;;;;2835615;28;10002399;-67
2022/01/07 03:26:57;;;;;;;4.72;2.55;;;;;;;;;;2943598;28;10001293;-67
2022/01/07 03:29:25;;;;;;;7.30;2.67;;;;;;;;;;5012694;28;20520;-67
2022/01/07 03:31:55;;;;;;;4.75;2.15;;;;;;;;;;5004657;28;20049;-67
2022/01/07 03:34:23;;;;;;;4.13;1.88;;;;;;;;;;5019124;28;20050;-67
2022/01/07 03:36:52;;;;;;;3.63;2.00;;;;;;;;;;5004367;28;20303;-67
2022/01/07 03:39:20;;;;;;;5.38;1.63;;;;;;;;;;5026445;28;20057;-67
2022/01/07 03:41:48;;;;;;;3.58;2.08;;;;;;;;;;5027410;28;20049;-67
2022/01/07 03:44:18;;;;;;;5.70;2.30;;;;;;;;;;5022883;28;20138;-67
2022/01/07 03:46:46;;;;;;;4.75;2.03;;;;;;;;;;5036341;28;20458;-67
2022/01/07 03:49:14;;;;;;;5.63;2.20;;;;;;;;;;5028872;28;20470;-67
2022/01/07 03:51:43;;;;;;;2.05;1.50;;;;;;;;;;5034249;28;20063;-67
2022/01/07 03:54:11;;;;;;;3.85;2.00;;;;;;;;;;5038729;28;20511;-67
2022/01/07 03:56:39;;;;;;;4.93;2.05;;;;;;;;;;5017758;28;20442;-67
2022/01/07 03:59:07;;;;;;;8.88;2.30;;;;;;;;;;5030766;28;20128;-67
2022/01/07 04:01:37;;;;;;;10.52;2.58;;;;;;;;;;5029012;28;20517;-67
2022/01/07 04:04:06;;;;;;;8.40;2.42;;;;;;;;;;5031356;28;20492;-67
2022/01/07 04:06:34;;;;;;;3.15;2.25;;;;;;;;;;5036171;28;20051;-67
2022/01/07 04:09:03;;;;;;;4.07;1.75;;;;;;;;;;5041024;28;20481;-67
2022/01/07 04:11:31;;;;;;;8.23;2.35;;;;;;;;;;5046275;28;20139;-67
2022/01/07 04:13:59;;;;;;;2.25;1.63;;;;;;;;;;5041257;28;20140;-67
2022/01/07 04:16:27;;;;;;;2.92;1.95;;;;;;;;;;5035269;28;20080;-67
2022/01/07 04:18:57;;;;;;;2.40;1.70;;;;;;;;;;5034477;28;20154;-67
2022/01/07 04:21:25;;;;;;;3.13;1.77;;;;;;;;;;5040750;28;20037;-67
2022/01/07 04:23:53;;;;;;;2.90;1.90;;;;;;;;;;5036701;28;20503;-67
2022/01/07 04:26:22;;;;;;;4.55;2.30;;;;;;;;;;5042023;28;20136;-67
2022/01/07 04:28:50;;;;;;;3.13;1.70;;;;;;;;;;5038462;28;20041;-67
2022/01/07 04:31:18;;;;;;;4.22;1.77;;;;;;;;;;5031609;28;20053;-67
2022/01/07 04:33:47;;;;;;;3.92;2.00;;;;;;;;;;5035005;28;20341;-67
2022/01/07 04:36:17;;;;;;;2.95;2.00;;;;;;;;;;5047340;28;20038;-67
2022/01/07 04:38:47;;;;;;;4.45;2.28;;;;;;;;;;5043689;28;20110;-67
2022/01/07 04:41:15;;;;;;;2.55;1.48;;;;;;;;;;5036739;28;20131;-67
2022/01/07 04:43:44;;;;;;;4.85;1.95;;;;;;;;;;5041906;28;20057;-67
2022/01/07 04:46:12;;;;;;;2.30;1.85;;;;;;;;;;5036157;28;20052;-67
2022/01/07 04:48:40;;;;;;;2.97;1.98;;;;;;;;;;5029779;28;20049;-67
2022/01/07 04:51:10;;;;;;;3.13;1.83;;;;;;;;;;5033358;28;20045;-67
2022/01/07 04:53:39;;;;;;;2.45;1.92;;;;;;;;;;5041721;28;20575;-67
2022/01/07 04:56:07;;;;;;;5.18;2.10;;;;;;;;;;5037623;28;20544;-67
2022/01/07 04:58:36;;;;;;;4.05;1.83;;;;;;;;;;5029847;28;20132;-67
2022/01/07 05:01:07;;;;;;;3.70;1.90;;;;;;;;;;5039757;28;20140;-67
2022/01/07 05:03:35;;;;;;;2.03;1.70;;;;;;;;;;5036086;28;20093;-67
2022/01/07 05:06:30;;;;;;;4.88;1.88;;;;;;;;;;5033367;28;20088;-67
2022/01/07 05:09:00;;;;;;;3.70;1.77;;;;;;;;;;5031504;28;20049;-67
2022/01/07 05:11:28;;;;;;;2.40;1.25;;;;;;;;;;5043035;28;20132;-67
2022/01/07 05:13:56;;;;;;;5.18;2.35;;;;;;;;;;5036560;28;20203;-67
2022/01/07 05:16:26;;;;;;;2.20;1.52;;;;;;;;;;5038861;28;20128;-67
2022/01/07 05:18:54;;;;;;;4.53;1.85;;;;;;;;;;5032203;28;20053;-67
2022/01/07 05:21:23;;;;;;;2.80;1.65;;;;;;;;;;5044368;28;20404;-67
2022/01/07 05:23:51;;;;;;;4.78;2.22;;;;;;;;;;5046657;28;20460;-67
2022/01/07 05:26:21;;;;;;;3.90;1.83;;;;;;;;;;5035812;28;20045;-67
2022/01/07 05:28:50;;;;;;;6.30;1.65;;;;;;;;;;5036367;28;20132;-67
2022/01/07 05:31:34;;;;;;;6.77;2.12;;;;;;;;;;2890182;28;10003332;-67
2022/01/07 05:34:02;;;;;;;3.65;2.35;;;;;;;;;;3280324;28;10001428;-67
2022/01/07 05:36:30;;;;;;;1.88;1.45;;;;;;;;;;5015868;28;20069;-67
2022/01/07 05:38:58;;;;;;;3.22;2.25;;;;;;;;;;5027335;28;20553;-67
2022/01/07 05:41:28;;;;;;;3.80;1.80;;;;;;;;;;5019874;28;20077;-67
2022/01/07 05:43:56;;;;;;;2.33;1.35;;;;;;;;;;5009983;28;20085;-67
2022/01/07 05:46:25;;;;;;;2.40;1.75;;;;;;;;;;5020830;28;20054;-67
2022/01/07 05:48:53;;;;;;;2.45;1.30;;;;;;;;;;5016468;28;20045;-67
2022/01/07 05:51:21;;;;;;;3.00;1.70;;;;;;;;;;5023086;28;20488;-67
2022/01/07 05:53:49;;;;;;;4.80;1.65;;;;;;;;;;5040969;28;20037;-68
2022/01/07 05:56:18;;;;;;;3.92;1.75;;;;;;;;;;5037201;28;20483;-67
2022/01/07 05:58:47;;;;;;;4.38;2.30;;;;;;;;;;5034715;28;20576;-68
2022/01/07 06:01:16;;;;;;;3.13;1.73;;;;;;;;;;5034797;28;20486;-67
2022/01/07 06:03:44;;;;;;;3.80;1.77;;;;;;;;;;5035590;28;20060;-67
2022/01/07 06:06:13;;;;;;;4.90;2.38;;;;;;;;;;5031326;28;20123;-67
2022/01/07 06:08:41;;;;;;;2.78;1.58;;;;;;;;;;5035040;28;20053;-67
2022/01/07 06:11:10;;;;;;;1.38;1.27;;;;;;;;;;5042604;28;20061;-67
2022/01/07 06:13:38;;;;;;;2.83;1.63;;;;;;;;;;5040548;28;20544;-67
2022/01/07 06:16:08;;;;;;;3.05;1.85;;;;;;;;;;5032966;28;20579;-68
2022/01/07 06:18:37;;;;;;;6.70;2.30;;;;;;;;;;5041189;28;20455;-68
2022/01/07 06:21:08;;;;;;;4.15;1.58;;;;;;;;;;5024697;28;20128;-68
2022/01/07 06:23:36;;;;;;;3.63;1.70;;;;;;;;;;5018612;28;20124;-68
2022/01/07 06:26:08;;;;;;;2.58;1.65;;;;;;;;;;5031167;28;20057;-68
2022/01/07 06:28:36;;;;;;;3.38;1.85;;;;;;;;;;5027126;28;20052;-68
2022/01/07 06:31:09;;;;;;;2.42;1.25;;;;;;;;;;5021621;28;20477;-68
2022/01/07 06:33:37;;;;;;;3.45;1.70;;;;;;;;;;5036267;28;20148;-73
2022/01/07 06:36:08;;;;;;;6.05;1.50;;;;;;;;;;5037980;28;20148;-68
2022/01/07 06:38:37;;;;;;;6.03;1.60;;;;;;;;;;5025508;28;20412;-68
2022/01/07 06:41:08;;;;;;;3.25;1.88;;;;;;;;;;5027311;28;20080;-68
2022/01/07 06:43:37;;;;;;;3.72;1.80;;;;;;;;;;5040929;28;20092;-68
2022/01/07 06:46:11;;;;;;;4.75;1.38;;;;;;;;;;5045969;28;20514;-68
2022/01/07 06:48:40;;;;;;;2.78;1.83;;;;;;;;;;5031651;28;20111;-68
2022/01/07 06:51:09;;;;;;;3.70;1.25;;;;;;;;;;5036484;28;20051;-68
2022/01/07 06:53:38;;;;;;;2.45;1.45;;;;;;;;;;5033246;28;20361;-68
2022/01/07 06:56:06;;;;;;;3.53;1.50;;;;;;;;;;5030562;28;20128;-68
2022/01/07 06:58:35;;;;;;;5.05;1.90;;;;;;;;;;5035741;28;20495;-68
2022/01/07 07:01:07;;;;;;;2.88;1.50;;;;;;;;;;5028919;28;20099;-68
2022/01/07 07:03:39;;;;;;;3.58;1.45;;;;;;;;;;5029560;28;20108;-68
2022/01/07 07:06:08;;;;;;;2.13;1.45;;;;;;;;;;5024166;28;20088;-68
2022/01/07 07:08:39;;;;;;;3.67;1.60;;;;;;;;;;5020187;28;20049;-68
2022/01/07 07:11:07;;;;;;;5.43;1.27;;;;;;;;;;5034009;28;20516;-68
2022/01/07 07:13:35;;;;;;;2.60;1.60;;;;;;;;;;5036886;28;20141;-68
2022/01/07 07:16:11;;;;;;;2.92;1.50;;;;;;;;;;5033000;28;20132;-68
2022/01/07 07:18:42;;;;;;;2.92;1.10;;;;;;;;;;5033485;28;20049;-68
2022/01/07 07:21:10;;;;;;;1.95;1.30;;;;;;;;;;5039801;28;20071;-68
2022/01/07 07:23:39;;;;;;;1.63;1.10;;;;;;;;;;5015280;28;20470;-68
2022/01/07 07:26:07;;;;;;;3.90;2.03;;;;;;;;;;5044252;28;20045;-68
2022/01/07 07:28:37;;;;;;;2.20;1.10;;;;;;;;;;5032105;28;20562;-68
2022/01/07 07:31:13;;;;;;;2.45;1.48;;;;;;;;;;5027595;28;20127;-68
2022/01/07 07:34:17;;;;;;;3.55;1.52;;;;;;;;;;5029058;28;20482;-66
2022/01/07 07:36:45;;;;;;;5.32;1.73;;;;;;;;;;5024557;28;20048;-69
2022/01/07 07:39:14;;;;;;;1.95;1.40;;;;;;;;;;5014639;28;20278;-67
2022/01/07 07:41:43;;;;;;;2.67;1.70;;;;;;;;;;5045401;28;20047;-67
2022/01/07 07:44:12;;;;;;;3.13;1.50;;;;;;;;;;5041336;28;20136;-67
2022/01/07 07:46:41;;;;;;;3.85;1.73;;;;;;;;;;5027902;28;20140;-67
2022/01/07 07:49:11;;;;;;;2.08;1.35;;;;;;;;;;5039278;28;20168;-67
2022/01/07 07:51:39;;;;;;;2.75;1.30;;;;;;;;;;5010937;28;20456;-67
2022/01/07 07:54:09;;;;;;;1.90;1.30;;;;;;;;;;5027181;28;20089;-66
2022/01/07 07:56:37;;;;;;;2.88;1.42;;;;;;;;;;5030581;28;20135;-67
2022/01/07 07:59:06;;;;;;;2.72;1.52;;;;;;;;;;5038089;28;20081;-67
2022/01/07 08:01:36;;;;;;;1.55;1.38;;;;;;;;;;5033059;28;20061;-67
2022/01/07 08:04:04;;;;;;;1.92;1.52;;;;;;;;;;5030825;28;20160;-67
2022/01/07 08:06:34;;;;;;;2.85;1.63;;;;;;;;;;5025094;28;20076;-67
2022/01/07 08:09:03;;;;;;;5.30;2.20;;;;;;;;;;5018214;28;20080;-67
2022/01/07 08:11:37;;;;;;;4.60;1.98;;;;;;;;;;5043727;28;20096;-67
2022/01/07 08:16:52;;;;;;;4.60;2.05;;;;;;;;;;5014313;28;20120;-67
2022/01/07 08:19:20;;;;;;;4.88;1.80;;;;;;;;;;5020528;28;20141;-67
2022/01/07 08:21:55;;;;;;;10.00;2.10;;;;;;;;;;436977;28;10022871;-67
2022/01/07 08:24:23;;;;;;;3.20;1.70;;;;;;;;;;5028371;28;20354;-67
2022/01/07 08:26:52;;;;;;;2.58;1.77;;;;;;;;;;5048353;28;20144;-67
2022/01/07 08:29:23;;;;;;;4.18;1.67;;;;;;;;;;5037526;28;20079;-67
2022/01/07 08:34:57;;;;;;;2.53;1.77;;;;;;;;;;5029504;28;20041;-67
2022/01/07 08:37:28;;;;;;;4.32;1.70;;;;;;;;;;5035088;28;20365;-67
2022/01/07 08:39:57;;;;;;;3.47;1.67;;;;;;;;;;5039848;28;20463;-67
2022/01/07 08:42:27;;;;;;;5.93;2.42;;;;;;;;;;5013656;28;20088;-67
2022/01/07 08:44:56;;;;;;;4.82;2.05;;;;;;;;;;5010828;28;20151;-68
2022/01/07 08:47:25;;;;;;;6.20;2.10;;;;;;;;;;5017992;28;20100;-67
2022/01/07 08:49:54;;;;;;;5.05;2.17;;;;;;;;;;5016997;28;20042;-67
2022/01/07 08:52:24;;;;;;;3.65;1.90;;;;;;;;;;5027150;28;20045;-67
2022/01/07 08:54:54;;;;;;;3.85;2.00;;;;;;;;;;5038659;28;20076;-67
2022/01/07 08:57:22;;;;;;;4.57;2.28;;;;;;;;;;5035969;28;20128;-68
2022/01/07 08:59:51;;;;;;;4.30;1.70;;;;;;;;;;5028784;28;20063;-68
2022/01/07 09:02:20;;;;;;;4.13;2.40;;;;;;;;;;5039122;28;20128;-68
2022/01/07 09:04:49;;;;;;;8.38;2.00;;;;;;;;;;5040665;28;20045;-68
2022/01/07 09:07:18;;;;;;;3.10;1.75;;;;;;;;;;5027546;28;20045;-68
2022/01/07 09:09:46;;;;;;;4.25;1.58;;;;;;;;;;5045604;28;20543;-68
2022/01/07 09:12:16;;;;;;;9.25;2.20;;;;;;;;;;5037768;28;20071;-68
2022/01/07 09:14:45;;;;;;;7.20;1.70;;;;;;;;;;5041521;28;20547;-68
2022/01/07 09:17:14;;;;;;;3.28;1.70;;;;;;;;;;5031041;28;20056;-68
2022/01/07 09:19:58;;;;;;;3.97;1.66;;;;;;;;;;2554192;28;10004030;-68
2022/01/07 09:22:27;;;;;;;3.50;1.88;;;;;;;;;;3626144;28;10001678;-68
2022/01/07 09:24:56;;;;;;;3.97;1.48;;;;;;;;;;5026852;28;20045;-68
2022/01/07 09:27:26;;;;;;;3.42;1.45;;;;;;;;;;5030316;28;20401;-68
2022/01/07 09:29:54;;;;;;;3.00;1.33;;;;;;;;;;5015923;28;20158;-68
2022/01/07 09:32:23;;;;;;;2.20;1.33;;;;;;;;;;5013620;28;20077;-68
2022/01/07 09:34:51;;;;;;;3.58;1.52;;;;;;;;;;5029228;28;20137;-68
2022/01/07 09:37:19;;;;;;;2.78;1.40;;;;;;;;;;5025208;28;20425;-68
2022/01/07 09:39:48;;;;;;;2.88;1.58;;;;;;;;;;5042854;28;20076;-68
2022/01/07 09:42:16;;;;;;;3.33;2.10;;;;;;;;;;5046691;28;20056;-68
2022/01/07 09:44:47;;;;;;;2.95;1.50;;;;;;;;;;5046066;28;20084;-68
2022/01/07 09:47:17;;;;;;;5.80;2.15;;;;;;;;;;5032294;28;20049;-68
2022/01/07 09:49:45;;;;;;;2.40;1.27;;;;;;;;;;5036344;28;20483;-68
2022/01/07 09:52:13;;;;;;;3.58;1.48;;;;;;;;;;5035940;28;20095;-68
2022/01/07 09:54:42;;;;;;;5.20;1.65;;;;;;;;;;5035938;28;20084;-68
2022/01/07 09:57:11;;;;;;;4.63;1.40;;;;;;;;;;5045899;28;20489;-68
2022/01/07 10:03:13;;;;;;;7.53;1.33;;;;;;;;;;5016231;28;20041;-68
2022/01/07 10:05:42;;;;;;;2.13;1.25;;;;;;;;;;5031336;28;20103;-68
2022/01/07 10:08:18;;;;;;;5.90;1.30;;;;;;;;;;5029053;28;20054;-68
2022/01/07 10:10:46;;;;;;;2.55;1.30;;;;;;;;;;5039277;28;20053;-68
2022/01/07 10:13:19;;;;;;;7.15;1.40;;;;;;;;;;5040231;28;20138;-67
2022/01/07 10:15:48;;;;;;;4.43;1.40;;;;;;;;;;5034111;28;20147;-67
2022/01/07 10:18:18;;;;;;;5.15;1.85;;;;;;;;;;5046894;28;20048;-67
2022/01/07 10:20:47;;;;;;;2.65;1.45;;;;;;;;;;5038247;28;20515;-68
2022/01/07 10:23:17;;;;;;;2.95;1.58;;;;;;;;;;5027889;28;20515;-68
2022/01/07 10:25:47;;;;;;;2.10;1.05;;;;;;;;;;5028317;28;20099;-69
2022/01/07 10:28:16;;;;;;;8.18;1.30;;;;;;;;;;5023960;28;20054;-69
2022/01/07 10:30:46;;;;;;;2.17;1.30;;;;;;;;;;5031776;28;20065;-69
2022/01/07 10:33:19;;;;;;;2.72;1.30;;;;;;;;;;5027718;28;20133;-69
2022/01/07 10:35:48;;;;;;;6.53;1.35;;;;;;;;;;5028850;28;20140;-69
2022/01/07 10:38:19;;;;;;;5.78;1.60;;;;;;;;;;5022879;28;20132;-69
2022/01/07 10:40:48;;;;;;;2.17;1.27;;;;;;;;;;5038808;28;20147;-69
2022/01/07 10:43:18;;;;;;;2.40;1.27;;;;;;;;;;5031965;28;20049;-69
2022/01/07 10:45:49;;;;;;;1.85;1.10;;;;;;;;;;5038809;28;20038;-69
2022/01/07 10:48:20;;;;;;;2.17;1.20;;;;;;;;;;5027099;28;20124;-69
2022/01/07 10:50:49;;;;;;;3.50;1.30;;;;;;;;;;5026455;28;20052;-68
2022/01/07 10:53:22;;;;;;;4.32;1.40;;;;;;;;;;5031722;28;20053;-69
2022/01/07 10:56:04;;;;;;;1.42;1.13;;;;;;;;;;5034482;28;20041;-69
2022/01/07 10:58:49;;;;;;;4.40;1.48;;;;;;;;;;5034231;28;20103;-69
2022/01/07 11:01:26;;;;;;;2.40;1.45;;;;;;;;;;5023098;28;20497;-69
2022/01/07 11:03:57;;;;;;;2.35;1.17;;;;;;;;;;5009683;28;20093;-69
2022/01/07 11:06:27;;;;;;;2.15;1.33;;;;;;;;;;5027479;28;20104;-69
2022/01/07 11:08:56;;;;;;;5.28;1.58;;;;;;;;;;5032765;28;20489;-69
2022/01/07 11:11:25;;;;;;;1.58;1.05;;;;;;;;;;5024705;28;20496;-69
2022/01/07 11:13:54;;;;;;;3.55;0.80;;;;;;;;;;5016198;28;20108;-69
2022/01/07 11:16:22;;;;;;;5.85;1.20;;;;;;;;;;5021580;28;20045;-69
2022/01/07 11:18:51;;;;;;;2.50;1.17;;;;;;;;;;5028461;28;20050;-69
2022/01/07 11:21:21;;;;;;;2.85;1.00;;;;;;;;;;5043237;28;20132;-69
2022/01/07 11:23:50;;;;;;;3.92;1.95;;;;;;;;;;5034864;28;20132;-69
2022/01/07 11:26:18;;;;;;;2.63;1.60;;;;;;;;;;5031308;28;20076;-69
2022/01/07 11:29:03;;;;;;;2.17;0.79;;;;;;;;;;2528044;28;10003897;-69
2022/01/07 11:31:32;;;;;;;3.45;1.02;;;;;;;;;;3636595;28;10001231;-69
2022/01/07 11:34:19;;;;;;;3.97;0.98;;;;;;;;;;5020728;28;20140;-70
2022/01/07 11:36:48;;;;;;;5.85;0.93;;;;;;;;;;5012241;28;20046;-69
2022/01/07 11:39:17;;;;;;;4.22;1.38;;;;;;;;;;5013102;28;20072;-69
2022/01/07 11:41:47;;;;;;;0.95;0.73;;;;;;;;;;5024091;28;20140;-69
2022/01/07 11:44:16;;;;;;;2.05;0.93;;;;;;;;;;5008521;28;20494;-69
2022/01/07 11:46:44;;;;;;;1.88;1.05;;;;;;;;;;5021715;28;20466;-69
2022/01/07 11:49:33;;;;;;;7.75;1.23;;;;;;;;;;5018846;28;20280;-69
2022/01/07 11:52:16;;;;;;;4.80;1.10;;;;;;;;;;5034011;28;20048;-69
2022/01/07 11:55:05;;;;;;;2.60;0.85;;;;;;;;;;5027929;28;20085;-69
2022/01/07 11:57:47;;;;;;;3.10;1.13;;;;;;;;;;5017758;28;20136;-69
2022/01/07 12:00:16;;;;;;;2.60;0.85;;;;;;;;;;5041518;28;20139;-69
2022/01/07 12:03:01;;;;;;;2.30;1.08;;;;;;;;;;5041702;28;20077;-69
2022/01/07 12:05:30;;;;;;;1.63;0.90;;;;;;;;;;5027790;28;20135;-70
2022/01/07 12:08:00;;;;;;;3.42;1.40;;;;;;;;;;5040113;28;20099;-70
2022/01/07 12:10:30;;;;;;;2.40;0.90;;;;;;;;;;5033032;28;20129;-70
2022/01/07 12:13:01;;;;;;;3.58;1.33;;;;;;;;;;5037562;28;20198;-70
2022/01/07 12:15:30;;;;;;;3.05;1.20;;;;;;;;;;5032801;28;20037;-69
2022/01/07 12:18:08;;;;;;;4.10;1.20;;;;;;;;;;5035160;28;20080;-70
2022/01/07 12:20:50;;;;;;;2.25;1.27;;;;;;;;;;5030125;28;20124;-70
2022/01/07 12:23:22;;;;;;;3.25;1.30;;;;;;;;;;5035699;28;20053;-70
2022/01/07 12:25:53;;;;;;;2.03;1.38;;;;;;;;;;5031275;28;20552;-69
2022/01/07 12:28:22;;;;;;;3.70;1.10;;;;;;;;;;5029503;28;20132;-69
2022/01/07 12:30:51;;;;;;;2.90;1.40;;;;;;;;;;5038469;28;20068;-69
2022/01/07 12:33:20;;;;;;;4.78;1.52;;;;;;;;;;5039521;28;20439;-70
2022/01/07 12:35:49;;;;;;;2.88;1.48;;;;;;;;;;5032760;28;20048;-69
2022/01/07 12:38:19;;;;;;;1.98;1.15;;;;;;;;;;5019762;28;20261;-69
2022/01/07 12:41:00;;;;;;;4.00;1.50;;;;;;;;;;5031948;28;20041;-69
2022/01/07 12:43:31;;;;;;;1.85;1.17;;;;;;;;;;5031548;28;20123;-69
2022/01/07 12:46:00;;;;;;;3.72;1.83;;;;;;;;;;5022798;28;20053;-69
2022/01/07 12:48:36;;;;;;;3.67;1.67;;;;;;;;;;5017980;28;20168;-70
2022/01/07 12:51:08;;;;;;;4.20;1.90;;;;;;;;;;5027499;28;20044;-69
2022/01/07 12:53:37;;;;;;;4.50;1.63;;;;;;;;;;5035626;28;20532;-67
2022/01/07 12:56:26;;;;;;;4.75;1.60;;;;;;;;;;5039245;28;20049;-70
2022/01/07 12:58:55;;;;;;;9.77;2.22;;;;;;;;;;5034370;28;20468;-68
2022/01/07 13:01:28;;;;;;;3.00;1.60;;;;;;;;;;5023993;28;20064;-68
2022/01/07 13:04:04;;;;;;;2.17;1.67;;;;;;;;;;5032652;28;20045;-68
2022/01/07 13:06:32;;;;;;;4.50;1.98;;;;;;;;;;5034967;28;20045;-68
2022/01/07 13:09:01;;;;;;;3.67;1.73;;;;;;;;;;5038035;28;20053;-68
2022/01/07 13:11:31;;;;;;;2.67;1.38;;;;;;;;;;5028908;28;20045;-68
2022/01/07 13:14:03;;;;;;;2.85;1.55;;;;;;;;;;5024797;28;20456;-68
2022/01/07 13:16:32;;;;;;;5.32;1.65;;;;;;;;;;5030220;28;20505;-68
2022/01/07 13:19:04;;;;;;;6.63;2.00;;;;;;;;;;5030709;28;20538;-68
2022/01/07 13:21:33;;;;;;;5.05;1.58;;;;;;;;;;5029318;28;20100;-68
2022/01/07 13:24:02;;;;;;;6.45;1.73;;;;;;;;;;5026139;28;20103;-68
2022/01/07 13:26:34;;;;;;;4.43;1.75;;;;;;;;;;5039293;28;20481;-68
2022/01/07 13:29:14;;;;;;;2.83;1.63;;;;;;;;;;5029883;28;20111;-68
2022/01/07 13:31:44;;;;;;;4.07;1.83;;;;;;;;;;5026466;28;20072;-68
2022/01/07 13:34:12;;;;;;;4.28;1.80;;;;;;;;;;5029983;28;20079;-68
2022/01/07 13:36:44;;;;;;;4.20;1.95;;;;;;;;;;5029775;28;20124;-68
2022/01/07 13:39:13;;;;;;;5.95;1.77;;;;;;;;;;5024805;28;20050;-68
2022/01/07 13:41:56;;;;;;;4.07;1.27;;;;;;;;;;5028232;28;20465;-68
2022/01/07 13:44:26;;;;;;;3.42;1.25;;;;;;;;;;5042359;28;20146;-70
2022/01/07 13:46:56;;;;;;;6.90;2.05;;;;;;;;;;5050425;28;20124;-69
2022/01/07 13:49:24;;;;;;;4.43;2.00;;;;;;;;;;5048244;28;20053;-67
2022/01/07 13:51:55;;;;;;;3.47;1.65;;;;;;;;;;5058391;28;20040;-67
2022/01/07 13:54:25;;;;;;;2.38;1.40;;;;;;;;;;5053206;28;20076;-67
2022/01/07 13:57:00;;;;;;;5.30;1.80;;;;;;;;;;5046196;28;20107;-68
2022/01/07 13:59:40;;;;;;;4.70;2.05;;;;;;;;;;5046429;28;20061;-68
2022/01/07 14:02:09;;;;;;;2.55;1.55;;;;;;;;;;5051001;28;20057;-68
2022/01/07 14:04:47;;;;;;;2.28;1.20;;;;;;;;;;5052290;28;20048;-68
2022/01/07 14:07:37;;;;;;;2.78;1.65;;;;;;;;;;5049407;28;20148;-68
2022/01/07 14:10:15;;;;;;;4.75;1.52;;;;;;;;;;5039973;28;20045;-68
2022/01/07 14:12:50;;;;;;;2.90;1.42;;;;;;;;;;5042694;28;20130;-68
2022/01/07 14:15:22;;;;;;;4.88;1.77;;;;;;;;;;5060666;28;20056;-68
2022/01/07 14:17:51;;;;;;;3.58;2.30;;;;;;;;;;5040488;28;20559;-68
2022/01/07 14:20:20;;;;;;;3.60;1.77;;;;;;;;;;5046909;28;20210;-68
2022/01/07 14:22:51;;;;;;;3.70;1.70;;;;;;;;;;5056666;28;20040;-68
2022/01/07 14:25:31;;;;;;;3.00;1.70;;;;;;;;;;630104;28;10002121;-68
2022/01/07 14:28:05;;;;;;;4.95;1.60;;;;;;;;;;5042765;28;20262;-68
2022/01/07 14:30:35;;;;;;;1.92;1.08;;;;;;;;;;5048596;28;20053;-68
2022/01/07 14:33:03;;;;;;;7.97;1.80;;;;;;;;;;5046012;28;20045;-68
2022/01/07 14:35:32;;;;;;;4.63;1.85;;;;;;;;;;5046421;28;20044;-68
2022/01/07 14:38:00;;;;;;;5.47;1.65;;;;;;;;;;5050049;28;20052;-68
2022/01/07 14:40:29;;;;;;;5.60;1.52;;;;;;;;;;5055195;28;20071;-68
2022/01/07 14:42:57;;;;;;;3.28;1.55;;;;;;;;;;5043620;28;20172;-68
2022/01/07 14:45:26;;;;;;;5.72;1.75;;;;;;;;;;5044008;28;20076;-68
2022/01/07 14:47:56;;;;;;;2.65;1.58;;;;;;;;;;5038890;28;20418;-68
2022/01/07 14:50:24;;;;;;;3.30;1.60;;;;;;;;;;5048910;28;20461;-68
2022/01/07 14:52:53;;;;;;;5.22;1.33;;;;;;;;;;5054021;28;20080;-68
2022/01/07 14:55:24;;;;;;;3.80;1.63;;;;;;;;;;5046179;28;20133;-68
2022/01/07 14:57:53;;;;;;;1.83;1.42;;;;;;;;;;5045391;28;20052;-68
2022/01/07 15:00:22;;;;;;;3.65;1.40;;;;;;;;;;5043040;28;20088;-68
2022/01/07 15:02:51;;;;;;;4.60;1.23;;;;;;;;;;5039196;28;20095;-68
2022/01/07 15:05:22;;;;;;;6.32;1.75;;;;;;;;;;5046744;28;20359;-68
2022/01/07 15:08:08;;;;;;;5.78;1.90;;;;;;;;;;5040652;28;20080;-68
2022/01/07 15:10:37;;;;;;;3.28;1.42;;;;;;;;;;5053018;28;20056;-68